Anderson, MO

8:14 AM CDT on September 21, 2014 (GMT -0500)
Rogers Municipal-Carter | Change Station
CLOSE
Current Station
Airport
Location: Rogers,
Elevation: 1358 ft
Nearby Weather Stations

Elev 1358 ft 36.37 °N, 94.11 °W | Updated 10 minutes ago

Overcast
Overcast
70 °F
Feels Like 70 °F
N
4
Wind Variable Wind from Variable

Today
High -- | Low -- °F
--% Chance of Precip.
Yesterday
High -- | Low -- °F
Precip. -- in
7:04 AM 7:16 PM
Waning Crescent, 7% visible
Pressure 30.11 in
Visibility 3.0 miles
Clouds Few 3600 ft
Mostly Cloudy 5500 ft
Overcast 10000 ft
Dew Point 66 °F
Humidity 88%
Rainfall 0.06 in
Snow Depth Not available.
UV 0 out of 12
Pollen 6.50 out of 12
Air Quality Not available.
Flu Activity Not available.
SPECI KROG 211304Z VRB03KT 3SM -RA FEW036 BKN055 OVC100 21/19 A3011 RMK AO2 P0000

More Conditions Fewer Conditions

Pressure 30.11 in
Visibility 3.0 miles
Clouds Few 3600 ft
Mostly Cloudy 5500 ft
Overcast 10000 ft
Dew Point 66 °F
Humidity 88%
Rainfall 0.06 in
Snow Depth Not available.
UV 0 out of 12
Pollen 6.50 out of 12
Air Quality Not available.
Flu Activity Not available.
SPECI KROG 211304Z VRB03KT 3SM -RA FEW036 BKN055 OVC100 21/19 A3011 RMK AO2 P0000

More Conditions Fewer Conditions

10-Day Weather Forecast

Almanac

Astronomy

Sep. 21, 2014 Rise Set
Actual Time 7:04 AM CDT 7:16 PM CDT
Civil Twilight 6:39 AM CDT 7:41 PM CDT
Nautical Twilight 6:08 AM CDT 8:12 PM CDT
Astronomical Twilight 5:38 AM CDT 8:42 PM CDT
Moon 4:42 AM CDT 5:50 PM CDT
Length of Visible Light 13h 02m
Length of Day
12h 11m
Tomorrow will be 2m 18s shorter.
Waning Crescent, 7% of the Moon is Illuminated
Today
Waning Crescent
Sep 24
New
Oct 1
First Quarter
Oct 8
Full
Oct 15
Last Quarter

Today's Extremes

State Highs State Lows

Community

WunderPhotos

Upload Photos

1,755,136 photos uploaded!

Nearby

Snow Depth

Station Depth Elevation
No new snow has been reported.

Earthquake Activity

City Distance Mag. Time & Date
No recent earthquake activity has been reported nearby.
Minimum magnitude displayed is 2.5.

Coastal Water Temperatures

Place Temperature
No Stations Reporting

Nearby Weather Stations